This is the latest recevied weather packets stored in our database for station/object G4RHR. If no packets are shown the sender has not sent any weather packets the latest 10 day(s).
| Time | Temp. | Humidity | Pressure | Rain* | Wind** | Luminosity | Snow |
|---|---|---|---|---|---|---|---|
| 1777050900 | 13.33° C | 66% | 1022.6 hPa | 0 mm | - | - | - |
| 1777049279 | 13.33° C | 68% | 1022.9 hPa | 0 mm | - | - | - |
| 1777048201 | 13.89° C | 68% | 1022.9 hPa | 0 mm | - | - | - |
| 1777047792 | 13.89° C | 68% | 1022.9 hPa | 0 mm | - | - | - |
| 1777047121 | 13.89° C | 69% | 1023.1 hPa | 0 mm | - | - | - |
| 1777044014 | 13.89° C | 68% | 1023.5 hPa | 0 mm | - | - | - |
| 1777042261 | 14.44° C | 62% | 1023.8 hPa | 0 mm | - | - | - |
| 1777040773 | 16.11° C | 55% | 1023.9 hPa | 0 mm | - | - | - |
| 1777037940 | 17.22° C | 54% | 1024.3 hPa | 0 mm | - | - | - |
| 1777035781 | 17.78° C | 51% | 1024.6 hPa | 0 mm | - | - | - |
| 1777032001 | 17.78° C | 51% | 1025 hPa | 0 mm | - | - | - |
| 1777022281 | 13.89° C | 61% | 1025.9 hPa | 0 mm | - | - | - |
| 1777021875 | 12.78° C | 68% | 1026 hPa | 0 mm | - | - | - |
| 1777020120 | 10.56° C | 84% | 1026 hPa | 0 mm | - | - | - |
| 1777016879 | 7.78° C | 96% | 1025.9 hPa | 0 mm | - | - | - |
| 1777012560 | 6.11° C | 96% | 1026 hPa | 0 mm | - | - | - |
| 1777011483 | 5.56° C | 96% | 1026 hPa | 0 mm | - | - | - |
| 1777010940 | 5.56° C | 96% | 1026 hPa | 0 mm | - | - | - |
| 1777009860 | 5° C | 96% | 1026.1 hPa | 0 mm | - | - | - |
| 1777007159 | 4.44° C | 95% | 1026.1 hPa | 0 mm | - | - | - |
* Rain latest hour (hover to see other rain measurements)
** Current wind speed in m/s (hover to see current wind gust speed)